Tupelo, Mississippi
Current Conditions -  °F | °C
As of 12:53 PM on Thursday 30 Oct 2014 (Local Time) from KTUP Reporting Station
Clear Clear  
Wind Chill: 65°   Ceiling: Unl
Heat Index: 65°   Visibility: 10mi
Dew Point: 36°   Wind: 9mph
Humidity: 34%   Direction: 20°NNE
Pressure: 30.11"   Gusts: NA
Location:  34.26°N, 88.71°W
Report Text: KTUP 301753Z 02008KT 10SM CLR 18/02 A3011 RMK AO2 SLP196 T01830022 10183 20056 58020
Loading
Personal Weather Stations






























Interactive Weather Map
Tropical Storm Tracking
New forecast layout! Learn more

10-Day Weather Forecast

Advertisements
Track Severe Weather on mobile